sensor_id;sensor_type;location;lat;lon;timestamp;P1;durP1;ratioP1;P2;durP2;ratioP2
65636;SDS011;52327;42.622;23.316;2023-04-29T00:00:02;1.50;;;1.17;;
65636;SDS011;52327;42.622;23.316;2023-04-29T00:02:33;1.10;;;0.80;;
65636;SDS011;52327;42.622;23.316;2023-04-29T00:05:17;1.60;;;1.08;;
65636;SDS011;52327;42.622;23.316;2023-04-29T00:07:42;2.25;;;1.15;;
65636;SDS011;52327;42.622;23.316;2023-04-29T00:10:29;1.65;;;1.38;;
65636;SDS011;52327;42.622;23.316;2023-04-29T00:13:06;1.70;;;1.58;;
65636;SDS011;52327;42.622;23.316;2023-04-29T00:15:32;2.25;;;1.25;;
65636;SDS011;52327;42.622;23.316;2023-04-29T00:18:01;2.42;;;1.48;;
65636;SDS011;52327;42.622;23.316;2023-04-29T00:20:33;1.05;;;0.85;;
65636;SDS011;52327;42.622;23.316;2023-04-29T00:23:02;1.17;;;0.77;;
65636;SDS011;52327;42.622;23.316;2023-04-29T00:25:30;2.25;;;1.27;;
65636;SDS011;52327;42.622;23.316;2023-04-29T00:27:56;0.80;;;0.80;;
65636;SDS011;52327;42.622;23.316;2023-04-29T00:30:29;1.35;;;0.93;;
65636;SDS011;52327;42.622;23.316;2023-04-29T00:32:59;0.70;;;0.70;;
65636;SDS011;52327;42.622;23.316;2023-04-29T00:35:27;3.75;;;1.25;;
65636;SDS011;52327;42.622;23.316;2023-04-29T00:38:05;0.80;;;0.80;;
65636;SDS011;52327;42.622;23.316;2023-04-29T00:40:59;9.90;;;1.75;;
65636;SDS011;52327;42.622;23.316;2023-04-29T00:43:26;2.47;;;1.35;;
65636;SDS011;52327;42.622;23.316;2023-04-29T00:46:00;3.22;;;1.25;;
65636;SDS011;52327;42.622;23.316;2023-04-29T00:48:28;1.27;;;0.85;;
65636;SDS011;52327;42.622;23.316;2023-04-29T00:50:57;0.80;;;0.80;;
65636;SDS011;52327;42.622;23.316;2023-04-29T00:53:29;1.58;;;1.42;;
65636;SDS011;52327;42.622;23.316;2023-04-29T00:56:01;2.35;;;1.55;;
65636;SDS011;52327;42.622;23.316;2023-04-29T00:58:28;0.93;;;0.93;;
65636;SDS011;52327;42.622;23.316;2023-04-29T01:00:59;2.25;;;1.67;;
65636;SDS011;52327;42.622;23.316;2023-04-29T01:03:31;0.68;;;0.65;;
65636;SDS011;52327;42.622;23.316;2023-04-29T01:06:08;1.45;;;1.00;;
65636;SDS011;52327;42.622;23.316;2023-04-29T01:08:43;0.70;;;0.70;;
65636;SDS011;52327;42.622;23.316;2023-04-29T01:11:34;2.30;;;1.23;;
65636;SDS011;52327;42.622;23.316;2023-04-29T01:14:10;0.70;;;0.70;;
65636;SDS011;52327;42.622;23.316;2023-04-29T01:16:43;3.22;;;1.67;;
65636;SDS011;52327;42.622;23.316;2023-04-29T01:21:49;0.70;;;0.70;;
65636;SDS011;52327;42.622;23.316;2023-04-29T01:24:15;0.73;;;0.52;;
65636;SDS011;52327;42.622;23.316;2023-04-29T01:26:42;1.65;;;0.90;;
65636;SDS011;52327;42.622;23.316;2023-04-29T01:32:08;1.00;;;0.98;;
65636;SDS011;52327;42.622;23.316;2023-04-29T01:37:40;2.25;;;1.08;;
65636;SDS011;52327;42.622;23.316;2023-04-29T01:40:39;1.20;;;1.10;;
65636;SDS011;52327;42.622;23.316;2023-04-29T01:43:16;2.63;;;1.38;;
65636;SDS011;52327;42.622;23.316;2023-04-29T01:45:46;1.25;;;1.15;;
65636;SDS011;52327;42.622;23.316;2023-04-29T01:48:14;3.00;;;1.52;;
65636;SDS011;52327;42.622;23.316;2023-04-29T01:50:43;1.80;;;1.20;;
65636;SDS011;52327;42.622;23.316;2023-04-29T01:53:11;0.70;;;0.70;;
65636;SDS011;52327;42.622;23.316;2023-04-29T01:55:42;1.50;;;1.17;;
65636;SDS011;52327;42.622;23.316;2023-04-29T01:58:09;1.10;;;0.90;;
65636;SDS011;52327;42.622;23.316;2023-04-29T02:00:35;0.50;;;0.50;;
65636;SDS011;52327;42.622;23.316;2023-04-29T02:03:09;0.82;;;0.80;;
65636;SDS011;52327;42.622;23.316;2023-04-29T02:05:37;1.52;;;0.77;;
65636;SDS011;52327;42.622;23.316;2023-04-29T02:08:06;2.45;;;1.05;;
65636;SDS011;52327;42.622;23.316;2023-04-29T02:10:37;0.70;;;0.60;;
65636;SDS011;52327;42.622;23.316;2023-04-29T02:13:11;4.50;;;1.05;;
65636;SDS011;52327;42.622;23.316;2023-04-29T02:15:42;1.08;;;0.98;;
65636;SDS011;52327;42.622;23.316;2023-04-29T02:18:10;1.08;;;0.80;;
65636;SDS011;52327;42.622;23.316;2023-04-29T02:20:36;1.85;;;1.00;;
65636;SDS011;52327;42.622;23.316;2023-04-29T02:23:04;1.05;;;0.80;;
65636;SDS011;52327;42.622;23.316;2023-04-29T02:25:30;1.45;;;1.02;;
65636;SDS011;52327;42.622;23.316;2023-04-29T02:27:55;1.25;;;1.10;;
65636;SDS011;52327;42.622;23.316;2023-04-29T02:30:33;0.47;;;0.47;;
65636;SDS011;52327;42.622;23.316;2023-04-29T02:33:35;1.70;;;1.10;;
65636;SDS011;52327;42.622;23.316;2023-04-29T02:36:03;1.08;;;0.93;;
65636;SDS011;52327;42.622;23.316;2023-04-29T02:38:29;1.15;;;1.02;;
65636;SDS011;52327;42.622;23.316;2023-04-29T02:40:58;2.33;;;0.93;;
65636;SDS011;52327;42.622;23.316;2023-04-29T02:43:28;1.30;;;1.20;;
65636;SDS011;52327;42.622;23.316;2023-04-29T02:46:03;2.08;;;0.82;;
65636;SDS011;52327;42.622;23.316;2023-04-29T02:48:34;0.90;;;0.77;;
65636;SDS011;52327;42.622;23.316;2023-04-29T02:51:19;3.13;;;1.92;;
65636;SDS011;52327;42.622;23.316;2023-04-29T02:53:50;0.80;;;0.80;;
65636;SDS011;52327;42.622;23.316;2023-04-29T02:56:36;2.63;;;1.17;;
65636;SDS011;52327;42.622;23.316;2023-04-29T02:59:08;1.20;;;0.95;;
65636;SDS011;52327;42.622;23.316;2023-04-29T03:01:43;1.65;;;1.17;;
65636;SDS011;52327;42.622;23.316;2023-04-29T03:04:20;2.42;;;1.38;;
65636;SDS011;52327;42.622;23.316;2023-04-29T03:06:48;1.42;;;0.88;;
65636;SDS011;52327;42.622;23.316;2023-04-29T03:09:20;2.25;;;0.80;;
65636;SDS011;52327;42.622;23.316;2023-04-29T03:12:03;4.38;;;1.25;;
65636;SDS011;52327;42.622;23.316;2023-04-29T03:14:43;1.27;;;1.05;;
65636;SDS011;52327;42.622;23.316;2023-04-29T03:17:12;3.50;;;1.95;;
65636;SDS011;52327;42.622;23.316;2023-04-29T03:19:59;0.30;;;0.30;;
65636;SDS011;52327;42.622;23.316;2023-04-29T03:22:44;1.05;;;0.95;;
65636;SDS011;52327;42.622;23.316;2023-04-29T03:25:14;0.77;;;0.50;;
65636;SDS011;52327;42.622;23.316;2023-04-29T03:27:40;2.03;;;0.88;;
65636;SDS011;52327;42.622;23.316;2023-04-29T03:30:35;4.10;;;1.23;;
65636;SDS011;52327;42.622;23.316;2023-04-29T03:33:03;0.70;;;0.50;;
65636;SDS011;52327;42.622;23.316;2023-04-29T03:35:40;0.77;;;0.60;;
65636;SDS011;52327;42.622;23.316;2023-04-29T03:38:44;0.68;;;0.68;;
65636;SDS011;52327;42.622;23.316;2023-04-29T03:41:27;1.60;;;0.75;;
65636;SDS011;52327;42.622;23.316;2023-04-29T03:43:56;1.75;;;0.80;;
65636;SDS011;52327;42.622;23.316;2023-04-29T03:46:47;3.47;;;1.50;;
65636;SDS011;52327;42.622;23.316;2023-04-29T03:49:13;0.80;;;0.80;;
65636;SDS011;52327;42.622;23.316;2023-04-29T03:51:48;1.48;;;0.88;;
65636;SDS011;52327;42.622;23.316;2023-04-29T03:54:25;1.33;;;1.02;;
65636;SDS011;52327;42.622;23.316;2023-04-29T03:56:55;0.73;;;0.73;;
65636;SDS011;52327;42.622;23.316;2023-04-29T03:59:20;0.50;;;0.50;;
65636;SDS011;52327;42.622;23.316;2023-04-29T04:02:04;2.25;;;0.95;;
65636;SDS011;52327;42.622;23.316;2023-04-29T04:04:43;3.38;;;0.75;;
65636;SDS011;52327;42.622;23.316;2023-04-29T04:07:27;1.33;;;0.75;;
65636;SDS011;52327;42.622;23.316;2023-04-29T04:09:52;1.80;;;0.95;;
65636;SDS011;52327;42.622;23.316;2023-04-29T04:12:18;1.10;;;1.00;;
65636;SDS011;52327;42.622;23.316;2023-04-29T04:14:43;1.08;;;0.98;;
65636;SDS011;52327;42.622;23.316;2023-04-29T04:17:08;0.93;;;0.88;;
65636;SDS011;52327;42.622;23.316;2023-04-29T04:19:34;1.58;;;1.10;;
65636;SDS011;52327;42.622;23.316;2023-04-29T04:22:01;1.38;;;1.02;;
65636;SDS011;52327;42.622;23.316;2023-04-29T04:24:27;1.10;;;1.00;;
65636;SDS011;52327;42.622;23.316;2023-04-29T04:26:53;1.17;;;1.10;;
65636;SDS011;52327;42.622;23.316;2023-04-29T04:29:18;3.25;;;2.13;;
65636;SDS011;52327;42.622;23.316;2023-04-29T04:31:44;3.70;;;1.70;;
65636;SDS011;52327;42.622;23.316;2023-04-29T04:34:10;4.72;;;1.67;;
65636;SDS011;52327;42.622;23.316;2023-04-29T04:36:35;4.20;;;2.10;;
65636;SDS011;52327;42.622;23.316;2023-04-29T04:39:01;5.38;;;2.35;;
65636;SDS011;52327;42.622;23.316;2023-04-29T04:41:26;7.00;;;2.33;;
65636;SDS011;52327;42.622;23.316;2023-04-29T04:43:55;3.80;;;1.90;;
65636;SDS011;52327;42.622;23.316;2023-04-29T04:46:21;3.05;;;2.08;;
65636;SDS011;52327;42.622;23.316;2023-04-29T04:48:46;2.33;;;1.63;;
65636;SDS011;52327;42.622;23.316;2023-04-29T04:51:12;2.95;;;2.13;;
65636;SDS011;52327;42.622;23.316;2023-04-29T04:53:38;3.72;;;1.20;;
65636;SDS011;52327;42.622;23.316;2023-04-29T04:56:05;4.18;;;3.08;;
65636;SDS011;52327;42.622;23.316;2023-04-29T04:58:31;3.05;;;2.17;;
65636;SDS011;52327;42.622;23.316;2023-04-29T05:00:57;3.63;;;2.72;;
65636;SDS011;52327;42.622;23.316;2023-04-29T05:03:25;4.78;;;2.75;;
65636;SDS011;52327;42.622;23.316;2023-04-29T05:05:54;3.53;;;2.17;;
65636;SDS011;52327;42.622;23.316;2023-04-29T05:08:23;4.30;;;1.98;;
65636;SDS011;52327;42.622;23.316;2023-04-29T05:11:07;2.65;;;1.88;;
65636;SDS011;52327;42.622;23.316;2023-04-29T05:13:40;9.35;;;2.60;;
65636;SDS011;52327;42.622;23.316;2023-04-29T05:16:05;3.00;;;2.30;;
65636;SDS011;52327;42.622;23.316;2023-04-29T05:18:31;3.22;;;2.38;;
65636;SDS011;52327;42.622;23.316;2023-04-29T05:20:56;6.45;;;2.50;;
65636;SDS011;52327;42.622;23.316;2023-04-29T05:23:21;4.30;;;2.63;;
65636;SDS011;52327;42.622;23.316;2023-04-29T05:25:47;3.72;;;2.70;;
65636;SDS011;52327;42.622;23.316;2023-04-29T05:28:13;4.57;;;3.20;;
65636;SDS011;52327;42.622;23.316;2023-04-29T05:30:39;3.38;;;2.00;;
65636;SDS011;52327;42.622;23.316;2023-04-29T05:33:05;4.15;;;2.50;;
65636;SDS011;52327;42.622;23.316;2023-04-29T05:35:31;4.43;;;1.90;;
65636;SDS011;52327;42.622;23.316;2023-04-29T05:37:56;3.38;;;1.90;;
65636;SDS011;52327;42.622;23.316;2023-04-29T05:40:21;2.15;;;1.55;;
65636;SDS011;52327;42.622;23.316;2023-04-29T05:42:47;14.02;;;2.47;;
65636;SDS011;52327;42.622;23.316;2023-04-29T05:45:13;5.07;;;3.10;;
65636;SDS011;52327;42.622;23.316;2023-04-29T05:47:38;3.63;;;2.53;;
65636;SDS011;52327;42.622;23.316;2023-04-29T05:50:07;5.65;;;3.28;;
65636;SDS011;52327;42.622;23.316;2023-04-29T05:52:32;5.80;;;2.78;;
65636;SDS011;52327;42.622;23.316;2023-04-29T05:54:58;5.50;;;3.30;;
65636;SDS011;52327;42.622;23.316;2023-04-29T05:57:23;3.80;;;1.80;;
65636;SDS011;52327;42.622;23.316;2023-04-29T05:59:48;4.50;;;2.83;;
65636;SDS011;52327;42.622;23.316;2023-04-29T06:02:14;7.45;;;3.55;;
65636;SDS011;52327;42.622;23.316;2023-04-29T06:04:39;4.78;;;3.35;;
65636;SDS011;52327;42.622;23.316;2023-04-29T06:07:05;4.07;;;2.85;;
65636;SDS011;52327;42.622;23.316;2023-04-29T06:09:33;4.38;;;2.83;;
65636;SDS011;52327;42.622;23.316;2023-04-29T06:12:00;4.47;;;2.97;;
65636;SDS011;52327;42.622;23.316;2023-04-29T06:14:25;7.35;;;3.10;;
65636;SDS011;52327;42.622;23.316;2023-04-29T06:16:51;5.40;;;3.13;;
65636;SDS011;52327;42.622;23.316;2023-04-29T06:19:17;5.00;;;3.03;;
65636;SDS011;52327;42.622;23.316;2023-04-29T06:21:43;6.05;;;3.28;;
65636;SDS011;52327;42.622;23.316;2023-04-29T06:24:08;6.32;;;2.58;;
65636;SDS011;52327;42.622;23.316;2023-04-29T06:26:34;6.35;;;3.67;;
65636;SDS011;52327;42.622;23.316;2023-04-29T06:28:59;12.07;;;3.67;;
65636;SDS011;52327;42.622;23.316;2023-04-29T06:31:25;5.43;;;2.67;;
65636;SDS011;52327;42.622;23.316;2023-04-29T06:33:51;4.78;;;2.88;;
65636;SDS011;52327;42.622;23.316;2023-04-29T06:36:17;3.22;;;2.38;;
65636;SDS011;52327;42.622;23.316;2023-04-29T06:38:42;3.88;;;2.03;;
65636;SDS011;52327;42.622;23.316;2023-04-29T06:41:07;5.75;;;2.50;;
65636;SDS011;52327;42.622;23.316;2023-04-29T06:43:34;5.85;;;2.28;;
65636;SDS011;52327;42.622;23.316;2023-04-29T06:45:59;3.55;;;2.35;;
65636;SDS011;52327;42.622;23.316;2023-04-29T06:48:25;4.05;;;2.97;;
65636;SDS011;52327;42.622;23.316;2023-04-29T06:50:52;3.10;;;2.13;;
65636;SDS011;52327;42.622;23.316;2023-04-29T06:53:24;6.00;;;2.22;;
65636;SDS011;52327;42.622;23.316;2023-04-29T06:55:52;2.17;;;1.85;;
65636;SDS011;52327;42.622;23.316;2023-04-29T06:58:18;2.08;;;1.83;;
65636;SDS011;52327;42.622;23.316;2023-04-29T07:00:44;5.50;;;2.47;;
65636;SDS011;52327;42.622;23.316;2023-04-29T07:03:11;3.47;;;2.30;;
65636;SDS011;52327;42.622;23.316;2023-04-29T07:05:37;7.07;;;2.33;;
65636;SDS011;52327;42.622;23.316;2023-04-29T07:08:12;3.00;;;1.73;;
65636;SDS011;52327;42.622;23.316;2023-04-29T07:10:38;1.65;;;1.50;;
65636;SDS011;52327;42.622;23.316;2023-04-29T07:13:04;3.58;;;2.10;;
65636;SDS011;52327;42.622;23.316;2023-04-29T07:15:29;3.50;;;2.10;;
65636;SDS011;52327;42.622;23.316;2023-04-29T07:17:58;1.67;;;1.30;;
65636;SDS011;52327;42.622;23.316;2023-04-29T07:20:24;2.28;;;1.50;;
65636;SDS011;52327;42.622;23.316;2023-04-29T07:22:51;4.40;;;1.92;;
65636;SDS011;52327;42.622;23.316;2023-04-29T07:25:17;2.58;;;1.35;;
65636;SDS011;52327;42.622;23.316;2023-04-29T07:27:42;7.72;;;2.13;;
65636;SDS011;52327;42.622;23.316;2023-04-29T07:30:10;3.13;;;1.40;;
65636;SDS011;52327;42.622;23.316;2023-04-29T07:32:36;2.47;;;1.92;;
65636;SDS011;52327;42.622;23.316;2023-04-29T07:35:02;2.35;;;1.42;;
65636;SDS011;52327;42.622;23.316;2023-04-29T07:37:27;2.30;;;1.50;;
65636;SDS011;52327;42.622;23.316;2023-04-29T07:39:53;2.33;;;1.55;;
65636;SDS011;52327;42.622;23.316;2023-04-29T07:42:18;1.92;;;1.42;;
65636;SDS011;52327;42.622;23.316;2023-04-29T07:44:44;2.47;;;1.90;;
65636;SDS011;52327;42.622;23.316;2023-04-29T07:47:10;3.65;;;2.40;;
65636;SDS011;52327;42.622;23.316;2023-04-29T07:49:38;4.50;;;2.42;;
65636;SDS011;52327;42.622;23.316;2023-04-29T07:52:04;2.03;;;1.67;;
65636;SDS011;52327;42.622;23.316;2023-04-29T07:54:30;1.17;;;1.08;;
65636;SDS011;52327;42.622;23.316;2023-04-29T07:57:02;6.53;;;2.65;;
65636;SDS011;52327;42.622;23.316;2023-04-29T07:59:28;2.58;;;1.70;;
65636;SDS011;52327;42.622;23.316;2023-04-29T08:01:54;3.85;;;2.53;;
65636;SDS011;52327;42.622;23.316;2023-04-29T08:04:20;2.80;;;1.85;;
65636;SDS011;52327;42.622;23.316;2023-04-29T08:06:45;6.60;;;2.42;;
65636;SDS011;52327;42.622;23.316;2023-04-29T08:09:11;11.40;;;1.90;;
65636;SDS011;52327;42.622;23.316;2023-04-29T08:11:37;10.32;;;2.20;;
65636;SDS011;52327;42.622;23.316;2023-04-29T08:14:04;2.03;;;1.52;;
65636;SDS011;52327;42.622;23.316;2023-04-29T08:16:30;4.00;;;2.10;;
65636;SDS011;52327;42.622;23.316;2023-04-29T08:18:55;4.60;;;2.28;;
65636;SDS011;52327;42.622;23.316;2023-04-29T08:21:21;2.83;;;1.73;;
65636;SDS011;52327;42.622;23.316;2023-04-29T08:23:47;3.78;;;2.33;;
65636;SDS011;52327;42.622;23.316;2023-04-29T08:26:12;6.80;;;2.33;;
65636;SDS011;52327;42.622;23.316;2023-04-29T08:28:38;3.10;;;2.17;;
65636;SDS011;52327;42.622;23.316;2023-04-29T08:31:04;3.47;;;2.50;;
65636;SDS011;52327;42.622;23.316;2023-04-29T08:33:34;4.15;;;1.95;;
65636;SDS011;52327;42.622;23.316;2023-04-29T08:36:00;3.00;;;1.75;;
65636;SDS011;52327;42.622;23.316;2023-04-29T08:38:27;2.45;;;1.70;;
65636;SDS011;52327;42.622;23.316;2023-04-29T08:40:56;3.33;;;2.08;;
65636;SDS011;52327;42.622;23.316;2023-04-29T08:43:22;3.53;;;1.98;;
65636;SDS011;52327;42.622;23.316;2023-04-29T08:45:48;2.03;;;1.67;;
65636;SDS011;52327;42.622;23.316;2023-04-29T08:48:17;5.85;;;1.98;;
65636;SDS011;52327;42.622;23.316;2023-04-29T08:50:43;2.22;;;1.40;;
65636;SDS011;52327;42.622;23.316;2023-04-29T08:53:09;2.78;;;1.92;;
65636;SDS011;52327;42.622;23.316;2023-04-29T08:55:40;3.10;;;1.77;;
65636;SDS011;52327;42.622;23.316;2023-04-29T08:58:09;1.73;;;1.45;;
65636;SDS011;52327;42.622;23.316;2023-04-29T09:00:36;5.97;;;2.13;;
65636;SDS011;52327;42.622;23.316;2023-04-29T09:06:19;1.83;;;1.27;;
65636;SDS011;52327;42.622;23.316;2023-04-29T09:08:45;2.05;;;1.40;;
65636;SDS011;52327;42.622;23.316;2023-04-29T09:11:11;10.00;;;1.88;;
65636;SDS011;52327;42.622;23.316;2023-04-29T09:13:37;4.30;;;1.77;;
65636;SDS011;52327;42.622;23.316;2023-04-29T09:16:02;2.00;;;1.55;;
65636;SDS011;52327;42.622;23.316;2023-04-29T09:18:48;1.92;;;1.30;;
65636;SDS011;52327;42.622;23.316;2023-04-29T09:21:19;1.50;;;1.33;;
65636;SDS011;52327;42.622;23.316;2023-04-29T09:23:47;3.60;;;1.60;;
65636;SDS011;52327;42.622;23.316;2023-04-29T09:26:14;4.32;;;1.55;;
65636;SDS011;52327;42.622;23.316;2023-04-29T09:28:40;1.52;;;1.35;;
65636;SDS011;52327;42.622;23.316;2023-04-29T09:31:08;2.33;;;1.30;;
65636;SDS011;52327;42.622;23.316;2023-04-29T09:36:39;2.28;;;1.60;;
65636;SDS011;52327;42.622;23.316;2023-04-29T09:39:08;2.70;;;1.50;;
65636;SDS011;52327;42.622;23.316;2023-04-29T09:41:41;2.00;;;1.48;;
65636;SDS011;52327;42.622;23.316;2023-04-29T09:44:23;4.90;;;1.60;;
65636;SDS011;52327;42.622;23.316;2023-04-29T09:46:58;2.58;;;1.80;;
65636;SDS011;52327;42.622;23.316;2023-04-29T09:52:00;5.63;;;1.85;;
65636;SDS011;52327;42.622;23.316;2023-04-29T09:54:27;2.47;;;1.65;;
65636;SDS011;52327;42.622;23.316;2023-04-29T09:56:58;3.08;;;1.90;;
65636;SDS011;52327;42.622;23.316;2023-04-29T09:59:30;2.08;;;1.58;;
65636;SDS011;52327;42.622;23.316;2023-04-29T10:01:58;2.85;;;1.85;;
65636;SDS011;52327;42.622;23.316;2023-04-29T10:04:24;3.50;;;2.05;;
65636;SDS011;52327;42.622;23.316;2023-04-29T10:06:52;2.47;;;1.90;;
65636;SDS011;52327;42.622;23.316;2023-04-29T10:09:19;2.47;;;1.52;;
65636;SDS011;52327;42.622;23.316;2023-04-29T10:11:49;2.05;;;1.55;;
65636;SDS011;52327;42.622;23.316;2023-04-29T10:14:19;3.15;;;2.08;;
65636;SDS011;52327;42.622;23.316;2023-04-29T10:16:51;2.67;;;2.10;;
65636;SDS011;52327;42.622;23.316;2023-04-29T10:19:32;2.25;;;1.73;;
65636;SDS011;52327;42.622;23.316;2023-04-29T10:22:11;3.13;;;2.00;;
65636;SDS011;52327;42.622;23.316;2023-04-29T10:24:40;4.45;;;2.75;;
65636;SDS011;52327;42.622;23.316;2023-04-29T10:27:08;2.95;;;1.85;;
65636;SDS011;52327;42.622;23.316;2023-04-29T10:29:36;3.85;;;2.42;;
65636;SDS011;52327;42.622;23.316;2023-04-29T10:32:03;6.75;;;2.60;;
65636;SDS011;52327;42.622;23.316;2023-04-29T10:34:31;5.00;;;2.67;;
65636;SDS011;52327;42.622;23.316;2023-04-29T10:36:59;7.13;;;2.80;;
65636;SDS011;52327;42.622;23.316;2023-04-29T10:40:27;5.35;;;2.45;;
65636;SDS011;52327;42.622;23.316;2023-04-29T10:42:45;6.70;;;2.25;;
65636;SDS011;52327;42.622;23.316;2023-04-29T10:53:13;3.97;;;2.20;;
65636;SDS011;52327;42.622;23.316;2023-04-29T10:55:46;3.13;;;1.98;;
65636;SDS011;52327;42.622;23.316;2023-04-29T10:58:35;3.85;;;2.40;;
65636;SDS011;52327;42.622;23.316;2023-04-29T11:01:12;3.58;;;2.20;;
65636;SDS011;52327;42.622;23.316;2023-04-29T11:03:55;4.43;;;2.47;;
65636;SDS011;52327;42.622;23.316;2023-04-29T11:09:00;4.22;;;2.38;;
65636;SDS011;52327;42.622;23.316;2023-04-29T11:12:07;3.78;;;1.42;;
65636;SDS011;52327;42.622;23.316;2023-04-29T11:19:41;3.63;;;1.83;;
65636;SDS011;52327;42.622;23.316;2023-04-29T11:22:13;6.93;;;1.88;;
65636;SDS011;52327;42.622;23.316;2023-04-29T11:24:53;1.88;;;1.40;;
65636;SDS011;52327;42.622;23.316;2023-04-29T11:27:20;1.92;;;1.20;;
65636;SDS011;52327;42.622;23.316;2023-04-29T11:29:49;1.90;;;1.70;;
65636;SDS011;52327;42.622;23.316;2023-04-29T11:32:19;3.05;;;1.20;;
65636;SDS011;52327;42.622;23.316;2023-04-29T11:34:45;3.63;;;1.60;;
65636;SDS011;52327;42.622;23.316;2023-04-29T11:37:11;2.35;;;1.13;;
65636;SDS011;52327;42.622;23.316;2023-04-29T11:39:36;2.10;;;1.40;;
65636;SDS011;52327;42.622;23.316;2023-04-29T11:42:05;2.50;;;1.60;;
65636;SDS011;52327;42.622;23.316;2023-04-29T11:44:32;1.60;;;1.08;;
65636;SDS011;52327;42.622;23.316;2023-04-29T11:47:04;3.08;;;1.20;;
65636;SDS011;52327;42.622;23.316;2023-04-29T11:49:33;1.30;;;0.90;;
65636;SDS011;52327;42.622;23.316;2023-04-29T11:51:59;2.05;;;0.95;;
65636;SDS011;52327;42.622;23.316;2023-04-29T11:54:25;0.98;;;0.70;;
65636;SDS011;52327;42.622;23.316;2023-04-29T11:56:55;2.20;;;0.95;;
65636;SDS011;52327;42.622;23.316;2023-04-29T11:59:22;2.50;;;1.05;;
65636;SDS011;52327;42.622;23.316;2023-04-29T12:01:48;2.20;;;1.15;;
65636;SDS011;52327;42.622;23.316;2023-04-29T12:04:15;2.10;;;0.90;;
65636;SDS011;52327;42.622;23.316;2023-04-29T12:06:40;1.33;;;0.77;;
65636;SDS011;52327;42.622;23.316;2023-04-29T12:09:06;1.15;;;1.00;;
65636;SDS011;52327;42.622;23.316;2023-04-29T12:11:32;5.35;;;1.75;;
65636;SDS011;52327;42.622;23.316;2023-04-29T12:13:59;1.40;;;1.25;;
65636;SDS011;52327;42.622;23.316;2023-04-29T12:16:26;1.98;;;1.13;;
65636;SDS011;52327;42.622;23.316;2023-04-29T12:18:53;1.25;;;0.85;;
65636;SDS011;52327;42.622;23.316;2023-04-29T12:21:22;2.15;;;1.50;;
65636;SDS011;52327;42.622;23.316;2023-04-29T12:23:49;3.00;;;1.55;;
65636;SDS011;52327;42.622;23.316;2023-04-29T12:26:15;2.15;;;1.10;;
65636;SDS011;52327;42.622;23.316;2023-04-29T12:28:42;1.85;;;1.05;;
65636;SDS011;52327;42.622;23.316;2023-04-29T12:31:08;2.58;;;1.13;;
65636;SDS011;52327;42.622;23.316;2023-04-29T12:33:35;2.75;;;1.33;;
65636;SDS011;52327;42.622;23.316;2023-04-29T12:36:01;4.10;;;1.55;;
65636;SDS011;52327;42.622;23.316;2023-04-29T12:38:28;2.40;;;1.38;;
65636;SDS011;52327;42.622;23.316;2023-04-29T12:40:58;1.85;;;1.08;;
65636;SDS011;52327;42.622;23.316;2023-04-29T12:43:30;1.33;;;0.93;;
65636;SDS011;52327;42.622;23.316;2023-04-29T12:46:04;0.50;;;0.50;;
65636;SDS011;52327;42.622;23.316;2023-04-29T12:48:37;1.38;;;0.77;;
65636;SDS011;52327;42.622;23.316;2023-04-29T12:51:07;2.33;;;0.93;;
65636;SDS011;52327;42.622;23.316;2023-04-29T12:53:35;0.80;;;0.80;;
65636;SDS011;52327;42.622;23.316;2023-04-29T12:56:01;0.77;;;0.52;;
65636;SDS011;52327;42.622;23.316;2023-04-29T12:58:27;1.13;;;0.75;;
65636;SDS011;52327;42.622;23.316;2023-04-29T13:00:54;1.08;;;0.82;;
65636;SDS011;52327;42.622;23.316;2023-04-29T13:03:20;3.17;;;1.00;;
65636;SDS011;52327;42.622;23.316;2023-04-29T13:05:52;1.85;;;0.98;;
65636;SDS011;52327;42.622;23.316;2023-04-29T13:08:23;1.52;;;1.00;;
65636;SDS011;52327;42.622;23.316;2023-04-29T13:10:51;0.82;;;0.60;;
65636;SDS011;52327;42.622;23.316;2023-04-29T13:13:17;0.90;;;0.70;;
65636;SDS011;52327;42.622;23.316;2023-04-29T13:15:55;1.65;;;0.75;;
65636;SDS011;52327;42.622;23.316;2023-04-29T13:21:10;2.05;;;0.93;;
65636;SDS011;52327;42.622;23.316;2023-04-29T13:23:44;1.25;;;0.65;;
65636;SDS011;52327;42.622;23.316;2023-04-29T13:26:13;0.77;;;0.63;;
65636;SDS011;52327;42.622;23.316;2023-04-29T13:29:17;0.60;;;0.60;;
65636;SDS011;52327;42.622;23.316;2023-04-29T13:31:48;1.00;;;0.90;;
65636;SDS011;52327;42.622;23.316;2023-04-29T13:34:19;1.27;;;1.13;;
65636;SDS011;52327;42.622;23.316;2023-04-29T13:36:44;0.60;;;0.60;;
65636;SDS011;52327;42.622;23.316;2023-04-29T13:39:13;0.90;;;0.80;;
65636;SDS011;52327;42.622;23.316;2023-04-29T13:41:50;1.48;;;0.70;;
65636;SDS011;52327;42.622;23.316;2023-04-29T13:44:21;1.52;;;1.27;;
65636;SDS011;52327;42.622;23.316;2023-04-29T13:46:54;1.83;;;0.85;;
65636;SDS011;52327;42.622;23.316;2023-04-29T13:49:23;1.20;;;0.80;;
65636;SDS011;52327;42.622;23.316;2023-04-29T13:51:48;2.45;;;1.08;;
65636;SDS011;52327;42.622;23.316;2023-04-29T13:54:13;1.15;;;0.85;;
65636;SDS011;52327;42.622;23.316;2023-04-29T13:56:39;1.75;;;1.10;;
65636;SDS011;52327;42.622;23.316;2023-04-29T13:59:05;1.20;;;0.88;;
65636;SDS011;52327;42.622;23.316;2023-04-29T14:01:31;1.08;;;0.70;;
65636;SDS011;52327;42.622;23.316;2023-04-29T14:03:56;0.98;;;0.52;;
65636;SDS011;52327;42.622;23.316;2023-04-29T14:06:22;0.93;;;0.65;;
65636;SDS011;52327;42.622;23.316;2023-04-29T14:08:47;0.80;;;0.60;;
65636;SDS011;52327;42.622;23.316;2023-04-29T14:11:13;0.63;;;0.52;;
65636;SDS011;52327;42.622;23.316;2023-04-29T14:13:38;1.98;;;0.95;;
65636;SDS011;52327;42.622;23.316;2023-04-29T14:16:04;1.23;;;1.02;;
65636;SDS011;52327;42.622;23.316;2023-04-29T14:18:30;1.13;;;0.82;;
65636;SDS011;52327;42.622;23.316;2023-04-29T14:20:56;1.60;;;0.90;;
65636;SDS011;52327;42.622;23.316;2023-04-29T14:23:23;3.03;;;0.90;;
65636;SDS011;52327;42.622;23.316;2023-04-29T14:25:49;1.55;;;1.00;;
65636;SDS011;52327;42.622;23.316;2023-04-29T14:28:15;1.23;;;0.73;;
65636;SDS011;52327;42.622;23.316;2023-04-29T14:30:40;1.50;;;0.82;;
65636;SDS011;52327;42.622;23.316;2023-04-29T14:33:07;2.50;;;1.10;;
65636;SDS011;52327;42.622;23.316;2023-04-29T14:35:33;3.38;;;0.98;;
65636;SDS011;52327;42.622;23.316;2023-04-29T14:37:58;1.17;;;0.88;;
65636;SDS011;52327;42.622;23.316;2023-04-29T14:40:24;2.60;;;0.90;;
65636;SDS011;52327;42.622;23.316;2023-04-29T14:42:49;2.22;;;1.10;;
65636;SDS011;52327;42.622;23.316;2023-04-29T14:45:15;1.02;;;0.93;;
65636;SDS011;52327;42.622;23.316;2023-04-29T14:47:41;1.48;;;0.95;;
65636;SDS011;52327;42.622;23.316;2023-04-29T14:50:06;1.52;;;1.02;;
65636;SDS011;52327;42.622;23.316;2023-04-29T14:52:33;1.33;;;1.00;;
65636;SDS011;52327;42.622;23.316;2023-04-29T14:54:59;2.33;;;1.60;;
65636;SDS011;52327;42.622;23.316;2023-04-29T14:57:24;2.55;;;1.65;;
65636;SDS011;52327;42.622;23.316;2023-04-29T14:59:56;1.65;;;1.23;;
65636;SDS011;52327;42.622;23.316;2023-04-29T15:02:21;2.38;;;1.23;;
65636;SDS011;52327;42.622;23.316;2023-04-29T15:04:47;2.28;;;1.38;;
65636;SDS011;52327;42.622;23.316;2023-04-29T15:07:13;2.20;;;1.33;;
65636;SDS011;52327;42.622;23.316;2023-04-29T15:09:39;1.70;;;1.10;;
65636;SDS011;52327;42.622;23.316;2023-04-29T15:12:06;2.58;;;1.77;;
65636;SDS011;52327;42.622;23.316;2023-04-29T15:14:31;3.33;;;1.20;;
65636;SDS011;52327;42.622;23.316;2023-04-29T15:16:58;1.95;;;1.10;;
65636;SDS011;52327;42.622;23.316;2023-04-29T15:19:23;1.55;;;1.05;;
65636;SDS011;52327;42.622;23.316;2023-04-29T15:21:50;2.60;;;1.40;;